createdAt,value
2019-05-09T00:00:30.230Z,12.50
2019-05-09T00:02:39.219Z,12.50
2019-05-09T00:04:45.192Z,12.50
2019-05-09T00:06:51.064Z,12.50
2019-05-09T00:08:55.824Z,12.50
2019-05-09T00:11:00.748Z,12.40
2019-05-09T00:13:05.674Z,12.50
2019-05-09T00:15:10.413Z,12.40
2019-05-09T00:17:15.395Z,12.40
2019-05-09T00:19:20.608Z,12.40
2019-05-09T00:21:33.252Z,12.40
2019-05-09T00:23:43.584Z,12.40
2019-05-09T00:25:47.774Z,12.40
2019-05-09T00:27:55.320Z,12.30
2019-05-09T00:30:00.431Z,12.40
2019-05-09T00:32:10.137Z,12.40
2019-05-09T00:34:23.420Z,12.30
2019-05-09T00:36:28.604Z,12.30
2019-05-09T00:38:43.336Z,12.30
2019-05-09T00:40:56.036Z,12.30
2019-05-09T00:42:54.999Z,12.30
2019-05-09T00:45:01.373Z,12.30
2019-05-09T00:47:07.933Z,12.20
2019-05-09T00:49:14.254Z,12.20
2019-05-09T00:51:19.313Z,12.20
2019-05-09T00:53:27.054Z,12.20
2019-05-09T00:55:33.283Z,12.20
2019-05-09T00:57:38.330Z,12.20
2019-05-09T00:59:44.606Z,12.20
2019-05-09T01:01:49.631Z,12.20
2019-05-09T01:03:55.882Z,12.20
2019-05-09T01:06:04.193Z,12.10
2019-05-09T01:08:13.746Z,12.10
2019-05-09T01:10:18.881Z,12.10
2019-05-09T01:12:23.779Z,12.10
2019-05-09T01:14:28.709Z,12.10
2019-05-09T01:16:33.710Z,12.10
2019-05-09T01:18:38.468Z,12.10
2019-05-09T01:20:44.068Z,12.00
2019-05-09T01:22:49.145Z,12.10
2019-05-09T01:24:56.795Z,12.00
2019-05-09T01:27:03.579Z,12.00
2019-05-09T01:29:08.117Z,12.00
2019-05-09T01:31:13.391Z,12.00
2019-05-09T01:33:20.104Z,12.00
2019-05-09T01:35:26.553Z,12.00
2019-05-09T01:37:34.030Z,12.00
2019-05-09T01:39:37.826Z,12.00
2019-05-09T01:41:43.633Z,12.00
2019-05-09T01:43:48.501Z,11.90
2019-05-09T01:45:54.088Z,12.00
2019-05-09T01:47:59.034Z,11.90
2019-05-09T01:50:05.218Z,11.90
2019-05-09T01:52:13.575Z,11.90
2019-05-09T01:54:19.832Z,11.90
2019-05-09T01:56:25.531Z,11.90
2019-05-09T01:58:34.305Z,11.90
2019-05-09T02:00:40.377Z,11.90
2019-05-09T02:02:45.236Z,11.90
2019-05-09T02:04:50.117Z,11.90
2019-05-09T02:06:55.027Z,11.90
2019-05-09T02:09:00.177Z,11.80
2019-05-09T02:11:05.398Z,11.90
2019-05-09T02:13:13.726Z,11.80
2019-05-09T02:15:23.679Z,11.80
2019-05-09T02:17:39.792Z,11.80
2019-05-09T02:19:46.746Z,11.80
2019-05-09T02:22:29.683Z,11.70
2019-05-09T02:24:35.295Z,11.80
2019-05-09T02:26:40.202Z,11.70
2019-05-09T02:28:48.454Z,11.70
2019-05-09T02:30:55.091Z,11.70
2019-05-09T02:33:00.247Z,11.70
2019-05-09T02:35:09.468Z,11.70
2019-05-09T02:37:18.550Z,11.70
2019-05-09T02:39:22.285Z,11.70
2019-05-09T02:41:28.686Z,11.60
2019-05-09T02:43:34.113Z,11.60
2019-05-09T02:45:52.313Z,11.60
2019-05-09T02:47:54.328Z,11.60
2019-05-09T02:50:00.162Z,11.60
2019-05-09T02:52:08.779Z,11.60
2019-05-09T02:54:13.499Z,11.60
2019-05-09T02:56:20.106Z,11.50
2019-05-09T02:58:28.183Z,11.50
2019-05-09T03:00:35.702Z,11.50
2019-05-09T03:02:42.958Z,11.50
2019-05-09T03:04:49.619Z,11.50
2019-05-09T03:06:55.248Z,11.50
2019-05-09T03:09:00.691Z,11.50
2019-05-09T03:11:09.735Z,11.50
2019-05-09T03:13:13.982Z,11.50
2019-05-09T03:15:19.708Z,11.50
2019-05-09T03:17:29.763Z,11.50
2019-05-09T03:19:34.797Z,11.40
2019-05-09T03:21:59.926Z,11.40
2019-05-09T03:24:05.194Z,11.40
2019-05-09T03:26:13.103Z,11.40
2019-05-09T03:28:23.682Z,11.40
2019-05-09T03:30:42.233Z,11.40
2019-05-09T03:32:53.062Z,11.40
2019-05-09T03:34:58.112Z,11.30
2019-05-09T03:37:03.055Z,11.30
2019-05-09T03:39:12.166Z,11.30
2019-05-09T03:41:17.730Z,11.30
2019-05-09T03:43:22.895Z,11.30
2019-05-09T03:45:27.662Z,11.30
2019-05-09T03:47:34.098Z,11.30
2019-05-09T03:49:39.148Z,11.20
2019-05-09T03:51:48.233Z,11.30
2019-05-09T03:53:53.068Z,11.20
2019-05-09T03:55:59.662Z,11.20
2019-05-09T03:58:07.481Z,11.20
2019-05-09T04:00:12.996Z,11.20
2019-05-09T04:02:19.860Z,11.20
2019-05-09T04:04:28.213Z,11.20
2019-05-09T04:06:33.278Z,11.20
2019-05-09T04:08:38.110Z,11.20
2019-05-09T04:10:43.442Z,11.20
2019-05-09T04:12:55.830Z,11.20
2019-05-09T04:14:58.340Z,11.20
2019-05-09T04:17:04.276Z,11.20
2019-05-09T04:19:09.986Z,11.20
2019-05-09T04:21:17.443Z,11.20
2019-05-09T04:23:27.569Z,11.20
2019-05-09T04:25:34.467Z,11.20
2019-05-09T04:27:41.603Z,11.20
2019-05-09T04:29:48.430Z,11.20
2019-05-09T04:31:54.211Z,11.20
2019-05-09T04:34:00.140Z,11.20
2019-05-09T04:36:05.050Z,11.20
2019-05-09T04:38:10.722Z,11.20
2019-05-09T04:40:19.614Z,11.20
2019-05-09T04:42:24.740Z,11.20
2019-05-09T04:44:37.576Z,11.20
2019-05-09T04:46:42.935Z,11.20
2019-05-09T04:48:48.145Z,11.20
2019-05-09T04:50:59.298Z,11.20
2019-05-09T04:53:04.634Z,11.20
2019-05-09T04:55:12.639Z,11.30
2019-05-09T04:57:20.901Z,11.20
2019-05-09T04:59:28.530Z,11.30
2019-05-09T05:01:52.712Z,11.30
2019-05-09T05:03:59.734Z,11.30
2019-05-09T05:06:07.689Z,11.30
2019-05-09T05:08:18.177Z,11.30
2019-05-09T05:10:27.347Z,11.30
2019-05-09T05:12:33.124Z,11.40
2019-05-09T05:14:38.627Z,11.40
2019-05-09T05:16:43.427Z,11.50
2019-05-09T05:18:50.914Z,11.50
2019-05-09T05:20:57.600Z,11.50
2019-05-09T05:23:04.814Z,11.60
2019-05-09T05:25:09.687Z,11.60
2019-05-09T05:27:14.440Z,11.70
2019-05-09T05:29:22.475Z,11.70
2019-05-09T05:31:28.496Z,11.80
2019-05-09T05:33:38.380Z,11.90
2019-05-09T05:35:44.819Z,11.90
2019-05-09T05:37:49.822Z,12.00
2019-05-09T05:39:54.603Z,12.10
2019-05-09T05:41:59.341Z,12.20
2019-05-09T05:44:04.129Z,12.30
2019-05-09T05:46:10.516Z,12.40
2019-05-09T05:48:23.149Z,12.50
2019-05-09T05:50:28.214Z,12.60
2019-05-09T05:52:33.189Z,12.70
2019-05-09T05:54:38.906Z,12.80
2019-05-09T05:56:43.702Z,12.90
2019-05-09T05:58:49.035Z,13.00
2019-05-09T06:00:53.855Z,13.10
2019-05-09T06:02:58.930Z,13.20
2019-05-09T06:05:05.342Z,13.30
2019-05-09T06:07:10.174Z,13.50
2019-05-09T06:09:14.926Z,13.60
2019-05-09T06:11:19.705Z,13.70
2019-05-09T06:13:24.444Z,13.80
2019-05-09T06:15:29.134Z,14.00
2019-05-09T06:17:33.901Z,14.10
2019-05-09T06:19:38.662Z,14.20
2019-05-09T06:21:45.088Z,14.30
2019-05-09T06:23:49.844Z,14.50
2019-05-09T06:25:54.610Z,14.60
2019-05-09T06:28:04.012Z,14.70
2019-05-09T06:30:08.856Z,14.80
2019-05-09T06:32:13.676Z,15.00
2019-05-09T06:34:19.519Z,15.10
2019-05-09T06:36:24.286Z,15.30
2019-05-09T06:38:29.011Z,15.40
2019-05-09T06:40:38.303Z,15.60
2019-05-09T06:42:42.839Z,15.70
2019-05-09T06:44:55.469Z,15.80
2019-05-09T06:47:10.680Z,15.90
2019-05-09T06:49:27.662Z,16.10
2019-05-09T06:51:23.533Z,16.20
2019-05-09T06:53:28.271Z,16.40
2019-05-09T06:55:33.057Z,16.50
2019-05-09T06:57:42.180Z,16.60
2019-05-09T06:59:44.147Z,16.70
2019-05-09T07:01:50.556Z,16.80
2019-05-09T07:03:59.934Z,16.90
2019-05-09T07:06:08.466Z,17.10
2019-05-09T07:08:18.253Z,17.20
2019-05-09T07:10:22.789Z,17.30
2019-05-09T07:12:28.576Z,17.40
2019-05-09T07:14:40.994Z,17.60
2019-05-09T07:16:43.011Z,17.70
2019-05-09T07:18:48.449Z,17.80
2019-05-09T07:20:53.278Z,17.90
2019-05-09T07:22:58.412Z,18.00
2019-05-09T07:25:10.224Z,18.10
2019-05-09T07:27:11.967Z,18.20
2019-05-09T07:29:17.833Z,18.30
2019-05-09T07:31:29.706Z,18.30
2019-05-09T07:33:53.128Z,18.40
2019-05-09T07:35:58.214Z,18.40
2019-05-09T07:38:02.971Z,18.40
2019-05-09T07:40:08.390Z,18.40
2019-05-09T07:42:18.004Z,18.40
2019-05-09T07:44:22.988Z,18.40
2019-05-09T07:46:29.431Z,18.40
2019-05-09T07:48:34.146Z,18.40
2019-05-09T07:50:39.099Z,18.40
2019-05-09T07:52:45.370Z,18.40
2019-05-09T07:54:51.348Z,18.40
2019-05-09T07:56:57.993Z,18.40
2019-05-09T07:59:02.525Z,18.40
2019-05-09T08:01:08.646Z,18.40
2019-05-09T08:03:13.643Z,18.40
2019-05-09T08:05:27.962Z,18.50
2019-05-09T08:07:37.885Z,18.50
2019-05-09T08:09:42.020Z,18.50
2019-05-09T08:11:48.294Z,18.50
2019-05-09T08:13:53.207Z,18.50
2019-05-09T08:16:00.884Z,18.50
2019-05-09T08:18:08.071Z,18.50
2019-05-09T08:20:13.817Z,18.50
2019-05-09T08:22:24.645Z,18.50
2019-05-09T08:24:24.932Z,18.50
2019-05-09T08:26:30.191Z,18.50
2019-05-09T08:28:34.984Z,18.50
2019-05-09T08:30:40.527Z,18.50
2019-05-09T08:32:47.995Z,18.40
2019-05-09T08:34:51.821Z,18.50
2019-05-09T08:36:58.021Z,18.50
2019-05-09T08:39:04.684Z,18.50
2019-05-09T08:41:10.662Z,18.50
2019-05-09T08:43:17.881Z,18.50
2019-05-09T08:45:27.524Z,18.60
2019-05-09T08:47:28.192Z,18.60
2019-05-09T08:49:34.600Z,18.60
2019-05-09T08:52:06.788Z,18.70
2019-05-09T08:53:53.580Z,18.70
2019-05-09T08:55:58.375Z,18.70
2019-05-09T08:58:03.127Z,18.70
2019-05-09T09:00:09.133Z,18.80
2019-05-09T09:02:18.480Z,18.80
2019-05-09T09:04:20.482Z,18.80
2019-05-09T09:06:27.703Z,18.90
2019-05-09T09:08:31.598Z,19.00
2019-05-09T09:10:39.103Z,19.00
2019-05-09T09:12:43.981Z,19.00
2019-05-09T09:14:48.744Z,19.10
2019-05-09T09:16:53.543Z,19.10
2019-05-09T09:18:58.594Z,19.10
2019-05-09T09:21:03.447Z,19.20
2019-05-09T09:23:09.141Z,19.20
2019-05-09T09:25:14.248Z,19.20
2019-05-09T09:27:18.994Z,19.20
2019-05-09T09:29:23.734Z,19.10
2019-05-09T09:31:28.644Z,19.10
2019-05-09T09:33:33.480Z,19.10
2019-05-09T09:35:39.897Z,19.00
2019-05-09T09:37:48.868Z,19.00
2019-05-09T09:39:51.105Z,19.00
2019-05-09T09:41:55.860Z,19.00
2019-05-09T09:44:00.575Z,18.90
2019-05-09T09:46:13.456Z,18.90
2019-05-09T09:48:12.407Z,18.80
2019-05-09T09:50:17.705Z,18.80
2019-05-09T09:52:22.642Z,18.80
2019-05-09T09:54:30.212Z,18.70
2019-05-09T09:56:38.466Z,18.70
2019-05-09T09:58:44.111Z,18.70
2019-05-09T10:00:58.397Z,18.70
2019-05-09T10:03:02.767Z,18.70
2019-05-09T10:05:07.887Z,18.60
2019-05-09T10:07:12.866Z,18.60
2019-05-09T10:09:20.435Z,18.60
2019-05-09T10:11:25.173Z,18.60
2019-05-09T10:13:29.883Z,18.60
2019-05-09T10:15:47.405Z,18.60
2019-05-09T10:17:53.347Z,18.60
2019-05-09T10:19:59.702Z,18.50
2019-05-09T10:22:08.623Z,18.50
2019-05-09T10:24:13.375Z,18.50
2019-05-09T10:26:18.141Z,18.50
2019-05-09T10:28:22.910Z,18.50
2019-05-09T10:30:32.569Z,18.40
2019-05-09T10:32:40.407Z,18.40
2019-05-09T10:34:45.182Z,18.40
2019-05-09T10:36:49.868Z,18.40
2019-05-09T10:38:54.650Z,18.30
2019-05-09T10:41:01.584Z,18.30
2019-05-09T10:43:09.100Z,18.30
2019-05-09T10:45:40.906Z,18.30
2019-05-09T10:47:43.896Z,18.30
2019-05-09T10:49:48.878Z,18.40
2019-05-09T10:51:53.762Z,18.40
2019-05-09T10:53:58.985Z,18.40
2019-05-09T10:56:03.816Z,18.50
2019-05-09T10:58:08.578Z,18.50
2019-05-09T11:00:13.435Z,18.50
2019-05-09T11:02:18.199Z,18.60
2019-05-09T11:04:22.980Z,18.60
2019-05-09T11:06:28.737Z,18.60
2019-05-09T11:08:33.834Z,18.60
2019-05-09T11:10:39.885Z,18.60
2019-05-09T11:12:44.782Z,18.70
2019-05-09T11:14:49.528Z,18.70
2019-05-09T11:17:07.813Z,18.70
2019-05-09T11:19:01.173Z,18.70
2019-05-09T11:21:08.358Z,18.70
2019-05-09T11:23:13.051Z,18.70
2019-05-09T11:25:17.844Z,18.70
2019-05-09T11:27:28.125Z,18.70
2019-05-09T11:29:33.151Z,18.70
2019-05-09T11:31:38.550Z,18.70
2019-05-09T11:33:43.378Z,18.70
2019-05-09T11:35:48.170Z,18.70
2019-05-09T11:37:53.016Z,18.70
2019-05-09T11:39:58.125Z,18.70
2019-05-09T11:42:05.811Z,18.70
2019-05-09T11:44:10.487Z,18.70
2019-05-09T11:46:17.735Z,18.70
2019-05-09T11:48:21.646Z,18.70
2019-05-09T11:50:26.477Z,18.70
2019-05-09T11:52:31.225Z,18.70
2019-05-09T11:54:38.928Z,18.70
2019-05-09T11:56:43.800Z,18.70
2019-05-09T11:58:51.829Z,18.80
2019-05-09T12:00:56.652Z,18.80
2019-05-09T12:03:01.416Z,18.80
2019-05-09T12:05:08.512Z,18.80
2019-05-09T12:07:12.774Z,18.80
2019-05-09T12:09:17.527Z,18.90
2019-05-09T12:11:22.360Z,18.90
2019-05-09T12:13:27.070Z,18.90
2019-05-09T12:15:31.817Z,19.00
2019-05-09T12:17:53.169Z,19.00
2019-05-09T12:19:42.972Z,19.00
2019-05-09T12:21:48.454Z,19.00
2019-05-09T12:23:53.357Z,19.10
2019-05-09T12:25:58.276Z,19.10
2019-05-09T12:28:03.095Z,19.10
2019-05-09T12:30:08.177Z,19.20
2019-05-09T12:32:18.415Z,19.30
2019-05-09T12:34:22.237Z,19.40
2019-05-09T12:36:28.663Z,19.40
2019-05-09T12:38:33.646Z,19.50
2019-05-09T12:40:39.013Z,19.50
2019-05-09T12:42:49.648Z,19.60
2019-05-09T12:44:53.181Z,19.70
2019-05-09T12:46:58.260Z,19.70
2019-05-09T12:49:08.729Z,19.70
2019-05-09T12:51:13.651Z,19.80
2019-05-09T12:53:19.058Z,19.80
2019-05-09T12:55:23.786Z,19.80
2019-05-09T12:57:29.014Z,19.90
2019-05-09T12:59:46.372Z,19.90
2019-05-09T13:01:41.371Z,19.90
2019-05-09T13:03:48.433Z,19.90
2019-05-09T13:05:53.019Z,20.00
2019-05-09T13:07:59.418Z,20.00
2019-05-09T13:10:08.962Z,20.00
2019-05-09T13:12:13.930Z,20.00
2019-05-09T13:14:20.304Z,20.00
2019-05-09T13:16:44.265Z,20.00
2019-05-09T13:18:54.480Z,20.00
2019-05-09T13:21:02.115Z,20.00
2019-05-09T13:23:08.876Z,19.90
2019-05-09T13:25:13.354Z,19.90
2019-05-09T13:27:18.935Z,19.90
2019-05-09T13:29:25.083Z,19.90
2019-05-09T13:31:34.713Z,19.90
2019-05-09T13:33:41.297Z,19.90
2019-05-09T13:35:45.521Z,19.90
2019-05-09T13:37:50.358Z,19.90
2019-05-09T13:39:59.990Z,20.00
2019-05-09T13:42:04.877Z,20.00
2019-05-09T13:44:13.467Z,20.10
2019-05-09T13:46:17.939Z,20.10
2019-05-09T13:48:32.620Z,20.10
2019-05-09T13:50:31.388Z,20.10
2019-05-09T13:52:38.009Z,20.10
2019-05-09T13:54:45.318Z,20.20
2019-05-09T13:56:56.571Z,20.20
2019-05-09T13:58:58.054Z,20.20
2019-05-09T14:01:03.812Z,20.20
2019-05-09T14:03:08.857Z,20.20
2019-05-09T14:05:15.045Z,20.20
2019-05-09T14:07:19.827Z,20.20
2019-05-09T14:09:24.500Z,20.20
2019-05-09T14:11:30.909Z,20.20
2019-05-09T14:13:38.301Z,20.20
2019-05-09T14:15:44.933Z,20.10
2019-05-09T14:17:53.686Z,20.10
2019-05-09T14:19:56.724Z,20.10
2019-05-09T14:22:01.679Z,20.10
2019-05-09T14:24:12.246Z,20.00
2019-05-09T14:26:12.880Z,20.00
2019-05-09T14:28:18.713Z,20.10
2019-05-09T14:30:23.484Z,20.00
2019-05-09T14:32:31.156Z,20.00
2019-05-09T14:34:34.646Z,20.00
2019-05-09T14:36:45.000Z,20.00
2019-05-09T14:38:48.585Z,20.00
2019-05-09T14:40:56.385Z,20.10
2019-05-09T14:43:01.150Z,20.10
2019-05-09T14:45:08.413Z,20.20
2019-05-09T14:47:13.312Z,20.20
2019-05-09T14:49:19.078Z,20.30
2019-05-09T14:51:23.874Z,20.30
2019-05-09T14:53:28.635Z,20.30
2019-05-09T14:55:33.361Z,20.40
2019-05-09T14:57:38.487Z,20.40
2019-05-09T14:59:43.234Z,20.40
2019-05-09T15:01:49.577Z,20.40
2019-05-09T15:03:58.521Z,20.40
2019-05-09T15:06:03.249Z,20.40
2019-05-09T15:08:07.957Z,20.40
2019-05-09T15:10:12.909Z,20.30
2019-05-09T15:12:20.518Z,20.30
2019-05-09T15:14:25.310Z,20.30
2019-05-09T15:16:31.548Z,20.30
2019-05-09T15:18:38.634Z,20.30
2019-05-09T15:20:43.446Z,20.20
2019-05-09T15:22:48.125Z,20.20
2019-05-09T15:24:53.018Z,20.20
2019-05-09T15:26:58.098Z,20.20
2019-05-09T15:29:02.936Z,20.20
2019-05-09T15:31:10.766Z,20.20
2019-05-09T15:33:17.589Z,20.10
2019-05-09T15:35:21.927Z,20.10
2019-05-09T15:37:28.622Z,20.10
2019-05-09T15:39:33.104Z,20.10
2019-05-09T15:41:38.666Z,20.10
2019-05-09T15:43:43.620Z,20.10
2019-05-09T15:45:50.027Z,20.10
2019-05-09T15:47:54.777Z,20.10
2019-05-09T15:50:15.488Z,20.10
2019-05-09T15:52:07.473Z,20.10
2019-05-09T15:54:12.934Z,20.10
2019-05-09T15:56:18.942Z,20.10
2019-05-09T15:58:23.963Z,20.10
2019-05-09T16:00:28.707Z,20.10
2019-05-09T16:02:35.237Z,20.10
2019-05-09T16:04:42.848Z,20.10
2019-05-09T16:06:50.088Z,20.10
2019-05-09T16:08:54.052Z,20.10
2019-05-09T16:10:59.217Z,20.00
2019-05-09T16:13:08.165Z,20.00
2019-05-09T16:15:12.982Z,20.00
2019-05-09T16:17:19.104Z,20.00
2019-05-09T16:19:25.172Z,19.90
2019-05-09T16:21:32.943Z,19.90
2019-05-09T16:23:38.084Z,19.90
2019-05-09T16:25:43.000Z,19.90
2019-05-09T16:27:52.846Z,19.80
2019-05-09T16:29:58.033Z,19.70
2019-05-09T16:32:04.009Z,19.60
2019-05-09T16:34:09.832Z,19.60
2019-05-09T16:36:14.663Z,19.50
2019-05-09T16:38:22.340Z,19.40
2019-05-09T16:40:30.112Z,19.40
2019-05-09T16:42:35.076Z,19.30
2019-05-09T16:44:41.874Z,19.30
2019-05-09T16:46:48.429Z,19.30
2019-05-09T16:48:53.457Z,19.20
2019-05-09T16:51:03.129Z,19.30
2019-05-09T16:53:04.626Z,19.30
2019-05-09T16:55:11.498Z,19.30
2019-05-09T16:57:18.218Z,19.30
2019-05-09T16:59:23.065Z,19.30
2019-05-09T17:01:28.521Z,19.30
2019-05-09T17:03:33.273Z,19.40
2019-05-09T17:05:38.047Z,19.30
2019-05-09T17:07:42.817Z,19.30
2019-05-09T17:09:51.344Z,19.30
2019-05-09T17:11:57.691Z,19.30
2019-05-09T17:14:02.590Z,19.30
2019-05-09T17:16:07.992Z,19.20
2019-05-09T17:18:18.630Z,19.20
2019-05-09T17:20:37.829Z,19.20
2019-05-09T17:23:10.972Z,19.10
2019-05-09T17:25:07.981Z,19.10
2019-05-09T17:27:12.893Z,19.00
2019-05-09T17:29:20.684Z,19.00
2019-05-09T17:31:27.560Z,18.90
2019-05-09T17:33:32.006Z,18.90
2019-05-09T17:35:49.283Z,18.80
2019-05-09T17:37:54.401Z,18.80
2019-05-09T17:39:59.246Z,18.80
2019-05-09T17:42:04.023Z,18.80
2019-05-09T17:44:08.756Z,18.80
2019-05-09T17:46:13.521Z,18.80
2019-05-09T17:48:21.280Z,18.70
2019-05-09T17:50:28.504Z,18.70
2019-05-09T17:52:32.510Z,18.70
2019-05-09T17:54:37.974Z,18.70
2019-05-09T17:56:48.240Z,18.70
2019-05-09T17:58:52.330Z,18.60
2019-05-09T18:00:57.667Z,18.60
2019-05-09T18:03:03.325Z,18.60
2019-05-09T18:05:08.351Z,18.50
2019-05-09T18:07:17.841Z,18.50
2019-05-09T18:09:22.182Z,18.40
2019-05-09T18:11:29.992Z,18.30
2019-05-09T18:13:35.022Z,18.30
2019-05-09T18:15:40.944Z,18.20
2019-05-09T18:17:47.711Z,18.10
2019-05-09T18:19:52.050Z,18.10
2019-05-09T18:21:57.876Z,18.00
2019-05-09T18:24:02.856Z,18.00
2019-05-09T18:26:07.980Z,17.90
2019-05-09T18:28:12.949Z,17.90
2019-05-09T18:30:17.794Z,17.80
2019-05-09T18:32:27.524Z,17.80
2019-05-09T18:34:32.408Z,17.70
2019-05-09T18:36:39.921Z,17.70
2019-05-09T18:38:44.973Z,17.70
2019-05-09T18:40:49.742Z,17.60
2019-05-09T18:42:54.973Z,17.60
2019-05-09T18:45:02.178Z,17.60
2019-05-09T18:47:07.839Z,17.60
2019-05-09T18:49:13.192Z,17.50
2019-05-09T18:51:17.961Z,17.50
2019-05-09T18:53:22.679Z,17.50
2019-05-09T18:55:27.419Z,17.50
2019-05-09T18:57:32.217Z,17.50
2019-05-09T18:59:37.082Z,17.40
2019-05-09T19:01:42.062Z,17.40
2019-05-09T19:03:46.815Z,17.40
2019-05-09T19:05:51.754Z,17.40
2019-05-09T19:07:56.501Z,17.40
2019-05-09T19:10:01.277Z,17.30
2019-05-09T19:12:07.181Z,17.30
2019-05-09T19:14:14.708Z,17.30
2019-05-09T19:16:27.456Z,17.30
2019-05-09T19:18:42.502Z,17.30
2019-05-09T19:20:48.905Z,17.30
2019-05-09T19:22:53.683Z,17.20
2019-05-09T19:24:58.458Z,17.30
2019-05-09T19:27:03.558Z,17.20
2019-05-09T19:29:08.923Z,17.20
2019-05-09T19:31:13.694Z,17.20
2019-05-09T19:33:19.174Z,17.10
2019-05-09T19:35:23.946Z,17.10
2019-05-09T19:37:29.693Z,17.10
2019-05-09T19:39:34.488Z,17.10
2019-05-09T19:41:39.177Z,17.10
2019-05-09T19:43:43.934Z,17.10
2019-05-09T19:45:48.698Z,17.10
2019-05-09T19:47:56.471Z,17.00
2019-05-09T19:50:01.525Z,17.00
2019-05-09T19:52:06.445Z,17.00
2019-05-09T19:54:11.206Z,17.00
2019-05-09T19:56:16.004Z,17.00
2019-05-09T19:58:20.752Z,17.00
2019-05-09T20:00:25.560Z,17.00
2019-05-09T20:02:30.337Z,16.90
2019-05-09T20:04:35.177Z,16.90
2019-05-09T20:06:39.970Z,16.90
2019-05-09T20:08:44.920Z,16.90
2019-05-09T20:11:09.016Z,16.90
2019-05-09T20:13:20.842Z,16.90
2019-05-09T20:15:29.393Z,16.80
2019-05-09T20:17:34.386Z,16.80
2019-05-09T20:19:39.404Z,16.80
2019-05-09T20:21:44.380Z,16.80
2019-05-09T20:23:50.164Z,16.70
2019-05-09T20:25:55.151Z,16.70
2019-05-09T20:28:00.119Z,16.70
2019-05-09T20:30:08.246Z,16.70
2019-05-09T20:32:13.024Z,16.60
2019-05-09T20:34:17.727Z,16.60
2019-05-09T20:36:25.666Z,16.60
2019-05-09T20:38:30.607Z,16.60
2019-05-09T20:40:39.999Z,16.60
2019-05-09T20:42:44.941Z,16.50
2019-05-09T20:44:49.894Z,16.50
2019-05-09T20:46:54.965Z,16.50
2019-05-09T20:49:00.002Z,16.50
2019-05-09T20:51:04.933Z,16.40
2019-05-09T20:53:10.211Z,16.40
2019-05-09T20:55:15.167Z,16.40
2019-05-09T20:57:20.189Z,16.40
2019-05-09T20:59:25.204Z,16.40
2019-05-09T21:01:30.072Z,16.40
2019-05-09T21:03:35.057Z,16.40
2019-05-09T21:05:40.275Z,16.40
2019-05-09T21:07:45.316Z,16.40
2019-05-09T21:09:50.368Z,16.40
2019-05-09T21:11:55.283Z,16.40
2019-05-09T21:14:00.359Z,16.40
2019-05-09T21:16:05.296Z,16.30
2019-05-09T21:18:10.423Z,16.30
2019-05-09T21:20:16.272Z,16.30
2019-05-09T21:22:21.383Z,16.30
2019-05-09T21:24:26.313Z,16.20
2019-05-09T21:26:31.313Z,16.20
2019-05-09T21:28:36.274Z,16.20
2019-05-09T21:30:41.228Z,16.10
2019-05-09T21:32:46.185Z,16.10
2019-05-09T21:34:50.945Z,16.10
2019-05-09T21:36:55.712Z,16.00
2019-05-09T21:39:00.487Z,16.00
2019-05-09T21:41:05.246Z,15.90
2019-05-09T21:43:09.945Z,15.90
2019-05-09T21:45:15.267Z,15.90
2019-05-09T21:47:20.027Z,15.80
2019-05-09T21:49:28.378Z,15.80
2019-05-09T21:51:33.216Z,15.80
2019-05-09T21:53:40.823Z,15.70
2019-05-09T21:55:44.394Z,15.70
2019-05-09T21:57:49.088Z,15.70
2019-05-09T21:59:53.785Z,15.70
2019-05-09T22:01:58.530Z,15.60
2019-05-09T22:04:03.406Z,15.60
2019-05-09T22:06:08.279Z,15.60
2019-05-09T22:08:13.120Z,15.60
2019-05-09T22:10:17.967Z,15.60
2019-05-09T22:12:22.861Z,15.50
2019-05-09T22:14:27.616Z,15.50
2019-05-09T22:16:32.462Z,15.50
2019-05-09T22:18:40.003Z,15.40
2019-05-09T22:20:44.786Z,15.50
2019-05-09T22:22:49.536Z,15.40
2019-05-09T22:24:54.390Z,15.40
2019-05-09T22:27:02.103Z,15.40
2019-05-09T22:29:07.404Z,15.30
2019-05-09T22:31:15.228Z,15.30
2019-05-09T22:33:19.942Z,15.30
2019-05-09T22:35:24.839Z,15.30
2019-05-09T22:37:29.588Z,15.30
2019-05-09T22:39:35.724Z,15.30
2019-05-09T22:41:40.478Z,15.30
2019-05-09T22:43:45.225Z,15.30
2019-05-09T22:45:50.011Z,15.30
2019-05-09T22:47:54.756Z,15.30
2019-05-09T22:49:59.460Z,15.30
2019-05-09T22:52:04.526Z,15.20
2019-05-09T22:54:12.597Z,15.30
2019-05-09T22:56:15.677Z,15.20
2019-05-09T22:58:23.192Z,15.20
2019-05-09T23:00:27.892Z,15.10
2019-05-09T23:02:35.276Z,15.10
2019-05-09T23:04:40.018Z,15.10
2019-05-09T23:06:44.781Z,15.10
2019-05-09T23:08:49.556Z,15.10
2019-05-09T23:10:54.308Z,15.00
2019-05-09T23:12:59.082Z,15.00
2019-05-09T23:15:04.141Z,15.00
2019-05-09T23:17:09.542Z,15.00
2019-05-09T23:19:14.286Z,14.90
2019-05-09T23:21:19.068Z,14.90
2019-05-09T23:23:29.187Z,14.90
2019-05-09T23:25:33.948Z,14.90
2019-05-09T23:27:41.738Z,14.90
2019-05-09T23:29:48.069Z,14.90
2019-05-09T23:31:55.034Z,14.90
2019-05-09T23:33:59.802Z,14.90
2019-05-09T23:36:04.692Z,14.90
2019-05-09T23:38:09.474Z,14.90
2019-05-09T23:40:14.248Z,14.90
2019-05-09T23:42:22.036Z,14.90
2019-05-09T23:44:26.790Z,14.80
2019-05-09T23:46:31.573Z,14.90
2019-05-09T23:48:36.308Z,14.90
2019-05-09T23:50:41.069Z,14.90
2019-05-09T23:52:45.765Z,14.90
2019-05-09T23:55:08.360Z,14.80
2019-05-09T23:57:31.036Z,14.80
2019-05-09T23:59:53.679Z,14.90
